This is the latest recevied weather packets stored in our database for station/object WMKK. If no packets are shown the sender has not sent any weather packets the latest 10 day(s).
| Time | Temp. | Humidity | Pressure | Rain* | Wind** | Luminosity | Snow |
|---|---|---|---|---|---|---|---|
| 1777439406 | 35.56° C | 50% | 1008 hPa | - | - | - | - |
| 1777437588 | 35° C | 56% | 1009 hPa | - | - | - | - |
| 1777414214 | 25.56° C | 94% | 1007 hPa | - | - | - | - |
| 1777412388 | 25.56° C | 94% | 1006 hPa | - | - | - | - |
| 1777408788 | 25.56° C | 94% | 1006 hPa | - | - | - | - |
| 1777403408 | 25.56° C | 94% | 1007 hPa | - | - | - | - |
| 1777396213 | 26.67° C | 83% | 1008 hPa | - | - | - | - |
| 1777392608 | 26.67° C | 83% | 1008 hPa | - | - | - | - |
| 1777378205 | 30.56° C | 70% | 1006 hPa | - | - | - | - |
| 1777376391 | 30.56° C | 79% | 1006 hPa | - | - | - | - |
| 1777371005 | 32.78° C | 66% | 1004 hPa | - | - | - | - |
| 1777369186 | 32.78° C | 70% | 1004 hPa | - | - | - | - |
| 1777365587 | 33.89° C | 63% | 1004 hPa | - | - | - | - |
| 1777363804 | 35° C | 56% | 1004 hPa | - | - | - | - |
| 1777361992 | 35° C | 53% | 1005 hPa | - | - | - | - |
| 1777360204 | 35° C | 53% | 1005 hPa | - | - | - | - |
| 1777356604 | 35.56° C | 50% | 1006 hPa | - | - | - | - |
| 1777354789 | 35° C | 53% | 1007 hPa | - | - | - | - |
| 1777353012 | 33.89° C | 59% | 1008 hPa | - | - | - | - |
| 1777351186 | 35° C | 59% | 1008 hPa | - | - | - | - |
| 1777349404 | 33.89° C | 59% | 1008 hPa | - | - | - | - |
| 1777347589 | 32.78° C | 66% | 1009 hPa | - | - | - | - |
| 1777345804 | 32.78° C | 62% | 1009 hPa | - | - | - | - |
| 1777342204 | 30.56° C | 70% | 1009 hPa | - | - | - | - |
| 1777335004 | 26.67° C | 83% | 1007 hPa | - | - | - | - |
* Rain since midnight (hover to see other rain measurements)
** Current wind speed in m/s (hover to see current wind gust speed)